sensor_id;sensor_type;location;lat;lon;timestamp;temperature;humidity
16437;DHT22;8328;52.206;21.006;2023-07-24T00:00:33;21.30;99.90
16437;DHT22;8328;52.206;21.006;2023-07-24T00:03:02;21.40;99.90
16437;DHT22;8328;52.206;21.006;2023-07-24T00:05:29;21.40;99.90
16437;DHT22;8328;52.206;21.006;2023-07-24T00:07:54;21.40;99.90
16437;DHT22;8328;52.206;21.006;2023-07-24T00:10:20;21.40;99.90
16437;DHT22;8328;52.206;21.006;2023-07-24T00:15:12;21.40;99.90
16437;DHT22;8328;52.206;21.006;2023-07-24T00:17:38;21.30;99.90
16437;DHT22;8328;52.206;21.006;2023-07-24T00:20:05;21.30;99.90
16437;DHT22;8328;52.206;21.006;2023-07-24T00:22:31;21.40;99.90
16437;DHT22;8328;52.206;21.006;2023-07-24T00:24:57;21.30;99.90
16437;DHT22;8328;52.206;21.006;2023-07-24T00:27:22;21.40;99.90
16437;DHT22;8328;52.206;21.006;2023-07-24T00:29:48;21.40;99.90
16437;DHT22;8328;52.206;21.006;2023-07-24T00:32:14;18.30;99.90
16437;DHT22;8328;52.206;21.006;2023-07-24T00:34:40;21.40;99.90
16437;DHT22;8328;52.206;21.006;2023-07-24T00:37:06;21.40;99.90
16437;DHT22;8328;52.206;21.006;2023-07-24T00:39:32;21.40;99.90
16437;DHT22;8328;52.206;21.006;2023-07-24T00:41:58;21.40;99.90
16437;DHT22;8328;52.206;21.006;2023-07-24T00:44:24;21.30;99.90
16437;DHT22;8328;52.206;21.006;2023-07-24T00:46:50;21.30;99.90
16437;DHT22;8328;52.206;21.006;2023-07-24T00:49:16;20.20;99.90
16437;DHT22;8328;52.206;21.006;2023-07-24T00:51:42;21.40;99.90
16437;DHT22;8328;52.206;21.006;2023-07-24T00:54:11;21.30;99.90
16437;DHT22;8328;52.206;21.006;2023-07-24T00:56:38;21.30;99.90
16437;DHT22;8328;52.206;21.006;2023-07-24T01:01:30;21.30;99.90
16437;DHT22;8328;52.206;21.006;2023-07-24T01:03:57;21.20;99.90
16437;DHT22;8328;52.206;21.006;2023-07-24T01:06:24;21.30;99.90
16437;DHT22;8328;52.206;21.006;2023-07-24T01:08:50;21.20;99.90
16437;DHT22;8328;52.206;21.006;2023-07-24T01:11:19;21.20;99.90
16437;DHT22;8328;52.206;21.006;2023-07-24T01:13:59;21.20;99.90
16437;DHT22;8328;52.206;21.006;2023-07-24T01:16:37;21.30;99.90
16437;DHT22;8328;52.206;21.006;2023-07-24T01:19:07;21.20;99.90
16437;DHT22;8328;52.206;21.006;2023-07-24T01:27:27;21.20;99.90
16437;DHT22;8328;52.206;21.006;2023-07-24T01:29:54;21.20;99.90
16437;DHT22;8328;52.206;21.006;2023-07-24T01:32:20;21.40;99.90
16437;DHT22;8328;52.206;21.006;2023-07-24T01:34:46;21.30;99.90
16437;DHT22;8328;52.206;21.006;2023-07-24T01:37:14;21.40;99.90
16437;DHT22;8328;52.206;21.006;2023-07-24T01:39:41;21.30;99.90
16437;DHT22;8328;52.206;21.006;2023-07-24T01:42:11;21.40;99.90
16437;DHT22;8328;52.206;21.006;2023-07-24T01:44:37;21.40;99.90
16437;DHT22;8328;52.206;21.006;2023-07-24T01:47:03;21.40;99.90
16437;DHT22;8328;52.206;21.006;2023-07-24T01:49:29;21.30;99.90
16437;DHT22;8328;52.206;21.006;2023-07-24T01:51:55;21.20;99.90
16437;DHT22;8328;52.206;21.006;2023-07-24T01:54:23;21.10;99.90
16437;DHT22;8328;52.206;21.006;2023-07-24T01:56:48;21.40;99.90
16437;DHT22;8328;52.206;21.006;2023-07-24T01:59:14;21.40;99.90
16437;DHT22;8328;52.206;21.006;2023-07-24T02:01:40;21.50;99.90
16437;DHT22;8328;52.206;21.006;2023-07-24T02:04:07;21.50;99.90
16437;DHT22;8328;52.206;21.006;2023-07-24T02:06:33;21.50;99.90
16437;DHT22;8328;52.206;21.006;2023-07-24T02:08:59;21.50;99.90
16437;DHT22;8328;52.206;21.006;2023-07-24T02:11:24;21.60;99.90
16437;DHT22;8328;52.206;21.006;2023-07-24T02:13:50;19.40;99.90
16437;DHT22;8328;52.206;21.006;2023-07-24T02:18:43;21.70;99.90
16437;DHT22;8328;52.206;21.006;2023-07-24T02:21:09;21.60;99.90
16437;DHT22;8328;52.206;21.006;2023-07-24T02:23:35;21.50;99.90
16437;DHT22;8328;52.206;21.006;2023-07-24T02:26:01;21.40;99.90
16437;DHT22;8328;52.206;21.006;2023-07-24T02:28:27;21.40;99.90
16437;DHT22;8328;52.206;21.006;2023-07-24T02:30:53;21.10;99.90
16437;DHT22;8328;52.206;21.006;2023-07-24T02:33:22;21.10;99.90
16437;DHT22;8328;52.206;21.006;2023-07-24T02:35:50;21.00;99.90
16437;DHT22;8328;52.206;21.006;2023-07-24T02:38:17;20.90;99.90
16437;DHT22;8328;52.206;21.006;2023-07-24T02:40:44;20.80;99.90
16437;DHT22;8328;52.206;21.006;2023-07-24T02:43:10;20.80;99.90
16437;DHT22;8328;52.206;21.006;2023-07-24T02:45:37;20.80;99.90
16437;DHT22;8328;52.206;21.006;2023-07-24T02:48:04;20.80;99.90
16437;DHT22;8328;52.206;21.006;2023-07-24T02:50:30;20.80;99.90
16437;DHT22;8328;52.206;21.006;2023-07-24T02:52:56;20.90;99.90
16437;DHT22;8328;52.206;21.006;2023-07-24T02:55:21;20.90;99.90
16437;DHT22;8328;52.206;21.006;2023-07-24T02:57:47;21.00;99.90
16437;DHT22;8328;52.206;21.006;2023-07-24T03:00:13;21.00;99.90
16437;DHT22;8328;52.206;21.006;2023-07-24T03:02:39;21.00;99.90
16437;DHT22;8328;52.206;21.006;2023-07-24T03:05:05;21.00;99.90
16437;DHT22;8328;52.206;21.006;2023-07-24T03:07:32;21.00;99.90
16437;DHT22;8328;52.206;21.006;2023-07-24T03:09:58;21.10;99.90
16437;DHT22;8328;52.206;21.006;2023-07-24T03:12:24;21.20;99.90
16437;DHT22;8328;52.206;21.006;2023-07-24T03:14:50;21.20;99.90
16437;DHT22;8328;52.206;21.006;2023-07-24T03:19:42;21.30;99.90
16437;DHT22;8328;52.206;21.006;2023-07-24T03:22:08;21.30;99.90
16437;DHT22;8328;52.206;21.006;2023-07-24T03:24:34;21.10;99.90
16437;DHT22;8328;52.206;21.006;2023-07-24T03:27:00;21.10;99.90
16437;DHT22;8328;52.206;21.006;2023-07-24T03:29:27;21.10;99.90
16437;DHT22;8328;52.206;21.006;2023-07-24T03:31:53;21.20;99.90
16437;DHT22;8328;52.206;21.006;2023-07-24T03:34:19;21.20;99.90
16437;DHT22;8328;52.206;21.006;2023-07-24T03:36:47;21.20;99.90
16437;DHT22;8328;52.206;21.006;2023-07-24T03:39:13;21.20;99.90
16437;DHT22;8328;52.206;21.006;2023-07-24T03:41:41;21.30;99.90
16437;DHT22;8328;52.206;21.006;2023-07-24T03:44:07;21.30;99.90
16437;DHT22;8328;52.206;21.006;2023-07-24T03:46:33;21.40;99.90
16437;DHT22;8328;52.206;21.006;2023-07-24T03:48:59;21.30;99.90
16437;DHT22;8328;52.206;21.006;2023-07-24T03:51:24;21.40;99.90
16437;DHT22;8328;52.206;21.006;2023-07-24T03:53:50;21.40;99.90
16437;DHT22;8328;52.206;21.006;2023-07-24T03:56:16;21.40;99.90
16437;DHT22;8328;52.206;21.006;2023-07-24T03:58:42;21.50;99.90
16437;DHT22;8328;52.206;21.006;2023-07-24T04:01:08;21.50;99.90
16437;DHT22;8328;52.206;21.006;2023-07-24T04:03:34;21.50;99.90
16437;DHT22;8328;52.206;21.006;2023-07-24T04:06:00;21.50;99.90
16437;DHT22;8328;52.206;21.006;2023-07-24T04:08:26;21.50;99.90
16437;DHT22;8328;52.206;21.006;2023-07-24T04:10:53;21.50;99.90
16437;DHT22;8328;52.206;21.006;2023-07-24T04:13:21;21.50;99.90
16437;DHT22;8328;52.206;21.006;2023-07-24T04:15:47;21.60;99.90
16437;DHT22;8328;52.206;21.006;2023-07-24T04:18:13;21.60;99.90
16437;DHT22;8328;52.206;21.006;2023-07-24T04:20:39;21.70;99.90
16437;DHT22;8328;52.206;21.006;2023-07-24T04:23:04;21.80;99.90
16437;DHT22;8328;52.206;21.006;2023-07-24T04:25:30;21.80;99.90
16437;DHT22;8328;52.206;21.006;2023-07-24T04:27:56;22.10;99.90
16437;DHT22;8328;52.206;21.006;2023-07-24T04:30:22;22.20;99.90
16437;DHT22;8328;52.206;21.006;2023-07-24T04:32:48;22.30;99.90
16437;DHT22;8328;52.206;21.006;2023-07-24T04:35:15;22.20;99.90
16437;DHT22;8328;52.206;21.006;2023-07-24T04:37:41;22.10;99.90
16437;DHT22;8328;52.206;21.006;2023-07-24T04:40:07;22.10;99.90
16437;DHT22;8328;52.206;21.006;2023-07-24T04:42:33;22.10;99.90
16437;DHT22;8328;52.206;21.006;2023-07-24T04:44:58;22.00;99.90
16437;DHT22;8328;52.206;21.006;2023-07-24T04:47:24;22.00;99.90
16437;DHT22;8328;52.206;21.006;2023-07-24T04:52:16;22.10;99.90
16437;DHT22;8328;52.206;21.006;2023-07-24T04:54:42;22.20;99.90
16437;DHT22;8328;52.206;21.006;2023-07-24T04:59:34;22.60;99.90
16437;DHT22;8328;52.206;21.006;2023-07-24T05:02:00;23.00;99.90
16437;DHT22;8328;52.206;21.006;2023-07-24T05:06:52;23.80;98.40
16437;DHT22;8328;52.206;21.006;2023-07-24T05:09:17;24.70;95.40
16437;DHT22;8328;52.206;21.006;2023-07-24T05:14:10;24.50;94.40
16437;DHT22;8328;52.206;21.006;2023-07-24T05:16:36;24.30;94.70
16437;DHT22;8328;52.206;21.006;2023-07-24T05:19:02;24.20;95.10
16437;DHT22;8328;52.206;21.006;2023-07-24T05:21:28;24.00;94.60
16437;DHT22;8328;52.206;21.006;2023-07-24T05:23:54;24.00;94.50
16437;DHT22;8328;52.206;21.006;2023-07-24T05:26:20;24.60;94.00
16437;DHT22;8328;52.206;21.006;2023-07-24T05:28:47;23.80;94.60
16437;DHT22;8328;52.206;21.006;2023-07-24T05:31:13;23.80;94.10
16437;DHT22;8328;52.206;21.006;2023-07-24T05:33:39;23.80;94.30
16437;DHT22;8328;52.206;21.006;2023-07-24T05:36:05;23.80;94.10
16437;DHT22;8328;52.206;21.006;2023-07-24T05:38:31;23.80;94.40
16437;DHT22;8328;52.206;21.006;2023-07-24T05:41:00;23.80;94.80
16437;DHT22;8328;52.206;21.006;2023-07-24T05:43:28;23.70;94.00
16437;DHT22;8328;52.206;21.006;2023-07-24T05:45:55;23.60;94.80
16437;DHT22;8328;52.206;21.006;2023-07-24T05:48:23;23.50;93.80
16437;DHT22;8328;52.206;21.006;2023-07-24T05:50:49;23.50;94.20
16437;DHT22;8328;52.206;21.006;2023-07-24T05:53:15;23.60;94.00
16437;DHT22;8328;52.206;21.006;2023-07-24T05:55:42;23.70;93.80
16437;DHT22;8328;52.206;21.006;2023-07-24T05:58:09;23.60;93.10
16437;DHT22;8328;52.206;21.006;2023-07-24T06:00:35;23.50;93.40
16437;DHT22;8328;52.206;21.006;2023-07-24T06:03:02;23.50;93.10
16437;DHT22;8328;52.206;21.006;2023-07-24T06:05:28;23.60;93.10
16437;DHT22;8328;52.206;21.006;2023-07-24T06:07:54;23.90;92.30
16437;DHT22;8328;52.206;21.006;2023-07-24T06:10:20;24.00;92.30
16437;DHT22;8328;52.206;21.006;2023-07-24T06:15:53;23.40;92.20
16437;DHT22;8328;52.206;21.006;2023-07-24T06:23:11;23.50;92.50
16437;DHT22;8328;52.206;21.006;2023-07-24T06:25:37;23.60;92.20
16437;DHT22;8328;52.206;21.006;2023-07-24T06:28:03;23.60;92.00
16437;DHT22;8328;52.206;21.006;2023-07-24T06:30:29;23.70;92.40
16437;DHT22;8328;52.206;21.006;2023-07-24T06:32:54;23.90;92.10
16437;DHT22;8328;52.206;21.006;2023-07-24T06:35:20;24.20;90.90
16437;DHT22;8328;52.206;21.006;2023-07-24T06:37:46;24.10;91.10
16437;DHT22;8328;52.206;21.006;2023-07-24T06:40:12;24.20;91.10
16437;DHT22;8328;52.206;21.006;2023-07-24T06:42:38;24.30;91.30
16437;DHT22;8328;52.206;21.006;2023-07-24T06:45:04;24.40;91.00
16437;DHT22;8328;52.206;21.006;2023-07-24T06:47:30;24.50;90.10
16437;DHT22;8328;52.206;21.006;2023-07-24T06:49:56;24.60;88.90
16437;DHT22;8328;52.206;21.006;2023-07-24T06:52:23;24.60;88.80
16437;DHT22;8328;52.206;21.006;2023-07-24T06:54:48;24.50;88.40
16437;DHT22;8328;52.206;21.006;2023-07-24T06:57:14;24.50;88.40
16437;DHT22;8328;52.206;21.006;2023-07-24T06:59:40;24.40;89.70
16437;DHT22;8328;52.206;21.006;2023-07-24T07:02:06;24.60;90.10
16437;DHT22;8328;52.206;21.006;2023-07-24T07:04:32;25.10;85.00
16437;DHT22;8328;52.206;21.006;2023-07-24T07:09:23;25.20;83.10
16437;DHT22;8328;52.206;21.006;2023-07-24T07:11:54;25.20;84.20
16437;DHT22;8328;52.206;21.006;2023-07-24T07:14:19;25.30;83.70
16437;DHT22;8328;52.206;21.006;2023-07-24T07:16:46;25.20;84.60
16437;DHT22;8328;52.206;21.006;2023-07-24T07:21:39;25.30;81.20
16437;DHT22;8328;52.206;21.006;2023-07-24T07:24:05;25.40;81.50
16437;DHT22;8328;52.206;21.006;2023-07-24T07:26:31;25.90;80.70
16437;DHT22;8328;52.206;21.006;2023-07-24T07:28:56;26.20;77.70
16437;DHT22;8328;52.206;21.006;2023-07-24T07:33:48;26.90;75.70
16437;DHT22;8328;52.206;21.006;2023-07-24T07:36:14;26.60;69.80
16437;DHT22;8328;52.206;21.006;2023-07-24T07:41:06;26.90;69.40
16437;DHT22;8328;52.206;21.006;2023-07-24T07:43:33;27.40;70.00
16437;DHT22;8328;52.206;21.006;2023-07-24T07:46:03;28.00;64.50
16437;DHT22;8328;52.206;21.006;2023-07-24T07:48:29;28.20;60.70
16437;DHT22;8328;52.206;21.006;2023-07-24T07:50:54;28.10;61.10
16437;DHT22;8328;52.206;21.006;2023-07-24T07:53:20;27.80;59.70
16437;DHT22;8328;52.206;21.006;2023-07-24T07:55:46;27.80;58.40
16437;DHT22;8328;52.206;21.006;2023-07-24T07:58:20;27.80;59.10
16437;DHT22;8328;52.206;21.006;2023-07-24T08:00:45;28.20;57.90
16437;DHT22;8328;52.206;21.006;2023-07-24T08:05:37;28.70;54.70
16437;DHT22;8328;52.206;21.006;2023-07-24T08:08:04;28.90;54.90
16437;DHT22;8328;52.206;21.006;2023-07-24T08:10:30;29.00;53.80
16437;DHT22;8328;52.206;21.006;2023-07-24T08:12:55;29.20;51.10
16437;DHT22;8328;52.206;21.006;2023-07-24T08:15:21;28.90;49.20
16437;DHT22;8328;52.206;21.006;2023-07-24T08:17:47;28.90;49.80
16437;DHT22;8328;52.206;21.006;2023-07-24T08:25:06;28.80;47.50
16437;DHT22;8328;52.206;21.006;2023-07-24T08:30:01;29.00;46.90
16437;DHT22;8328;52.206;21.006;2023-07-24T08:32:27;29.10;48.60
16437;DHT22;8328;52.206;21.006;2023-07-24T08:34:54;29.40;48.20
16437;DHT22;8328;52.206;21.006;2023-07-24T08:37:20;29.70;46.70
16437;DHT22;8328;52.206;21.006;2023-07-24T08:39:45;29.50;44.90
16437;DHT22;8328;52.206;21.006;2023-07-24T08:42:12;29.60;45.60
16437;DHT22;8328;52.206;21.006;2023-07-24T08:44:38;30.20;45.10
16437;DHT22;8328;52.206;21.006;2023-07-24T08:47:09;29.60;43.90
16437;DHT22;8328;52.206;21.006;2023-07-24T08:49:40;30.80;40.00
16437;DHT22;8328;52.206;21.006;2023-07-24T08:52:08;30.80;39.10
16437;DHT22;8328;52.206;21.006;2023-07-24T08:54:36;30.70;39.60
16437;DHT22;8328;52.206;21.006;2023-07-24T08:57:06;30.90;38.60
16437;DHT22;8328;52.206;21.006;2023-07-24T08:59:37;30.70;38.40
16437;DHT22;8328;52.206;21.006;2023-07-24T09:02:06;30.70;38.10
16437;DHT22;8328;52.206;21.006;2023-07-24T09:04:32;30.80;38.70
16437;DHT22;8328;52.206;21.006;2023-07-24T09:06:58;31.20;37.00
16437;DHT22;8328;52.206;21.006;2023-07-24T09:09:31;31.30;37.50
16437;DHT22;8328;52.206;21.006;2023-07-24T09:14:27;31.50;35.50
16437;DHT22;8328;52.206;21.006;2023-07-24T09:17:08;31.30;35.30
16437;DHT22;8328;52.206;21.006;2023-07-24T09:19:34;31.50;35.70
16437;DHT22;8328;52.206;21.006;2023-07-24T09:22:11;31.20;33.30
16437;DHT22;8328;52.206;21.006;2023-07-24T09:24:48;31.10;33.70
16437;DHT22;8328;52.206;21.006;2023-07-24T09:29:41;31.60;33.40
16437;DHT22;8328;52.206;21.006;2023-07-24T09:32:22;31.60;34.10
16437;DHT22;8328;52.206;21.006;2023-07-24T09:34:49;32.00;32.60
16437;DHT22;8328;52.206;21.006;2023-07-24T09:37:34;32.20;30.70
16437;DHT22;8328;52.206;21.006;2023-07-24T09:42:33;32.20;29.70
16437;DHT22;8328;52.206;21.006;2023-07-24T09:45:02;31.70;29.60
16437;DHT22;8328;52.206;21.006;2023-07-24T09:47:29;31.70;30.00
16437;DHT22;8328;52.206;21.006;2023-07-24T09:49:59;31.90;30.10
16437;DHT22;8328;52.206;21.006;2023-07-24T09:52:27;32.10;28.70
16437;DHT22;8328;52.206;21.006;2023-07-24T09:55:21;32.20;29.10
16437;DHT22;8328;52.206;21.006;2023-07-24T09:57:48;31.90;28.60
16437;DHT22;8328;52.206;21.006;2023-07-24T10:00:17;31.40;28.70
16437;DHT22;8328;52.206;21.006;2023-07-24T10:02:44;31.20;29.20
16437;DHT22;8328;52.206;21.006;2023-07-24T10:05:11;31.30;29.40
16437;DHT22;8328;52.206;21.006;2023-07-24T10:07:37;31.40;29.80
16437;DHT22;8328;52.206;21.006;2023-07-24T10:10:04;31.80;29.80
16437;DHT22;8328;52.206;21.006;2023-07-24T10:12:31;31.80;28.60
16437;DHT22;8328;52.206;21.006;2023-07-24T10:14:58;31.50;27.90
16437;DHT22;8328;52.206;21.006;2023-07-24T10:17:35;31.90;28.70
16437;DHT22;8328;52.206;21.006;2023-07-24T10:20:05;32.10;28.10
16437;DHT22;8328;52.206;21.006;2023-07-24T10:22:36;32.10;26.90
16437;DHT22;8328;52.206;21.006;2023-07-24T10:25:03;31.50;27.10
16437;DHT22;8328;52.206;21.006;2023-07-24T10:27:31;32.50;27.20
16437;DHT22;8328;52.206;21.006;2023-07-24T10:30:02;32.50;25.40
16437;DHT22;8328;52.206;21.006;2023-07-24T10:32:28;32.50;25.90
16437;DHT22;8328;52.206;21.006;2023-07-24T10:35:07;32.50;25.60
16437;DHT22;8328;52.206;21.006;2023-07-24T10:37:37;32.70;26.20
16437;DHT22;8328;52.206;21.006;2023-07-24T10:40:04;32.80;25.60
16437;DHT22;8328;52.206;21.006;2023-07-24T10:42:31;32.50;24.40
16437;DHT22;8328;52.206;21.006;2023-07-24T10:45:11;32.40;25.20
16437;DHT22;8328;52.206;21.006;2023-07-24T10:47:43;32.40;25.60
16437;DHT22;8328;52.206;21.006;2023-07-24T10:50:09;32.20;25.20
16437;DHT22;8328;52.206;21.006;2023-07-24T10:55:02;31.50;24.50
16437;DHT22;8328;52.206;21.006;2023-07-24T10:57:32;30.40;24.50
16437;DHT22;8328;52.206;21.006;2023-07-24T10:59:59;31.40;24.70
16437;DHT22;8328;52.206;21.006;2023-07-24T11:04:59;31.50;23.30
16437;DHT22;8328;52.206;21.006;2023-07-24T11:14:53;31.20;24.00
16437;DHT22;8328;52.206;21.006;2023-07-24T11:17:37;31.20;24.60
16437;DHT22;8328;52.206;21.006;2023-07-24T11:20:15;33.10;22.40
16437;DHT22;8328;52.206;21.006;2023-07-24T11:22:42;33.10;21.00
16437;DHT22;8328;52.206;21.006;2023-07-24T11:25:10;33.30;21.40
16437;DHT22;8328;52.206;21.006;2023-07-24T11:27:41;33.30;21.80
16437;DHT22;8328;52.206;21.006;2023-07-24T11:30:10;33.10;20.70
16437;DHT22;8328;52.206;21.006;2023-07-24T11:32:38;32.80;21.60
16437;DHT22;8328;52.206;21.006;2023-07-24T11:35:04;32.80;22.20
16437;DHT22;8328;52.206;21.006;2023-07-24T11:37:31;34.00;20.20
16437;DHT22;8328;52.206;21.006;2023-07-24T11:39:59;34.30;19.00
16437;DHT22;8328;52.206;21.006;2023-07-24T11:42:31;34.40;19.60
16437;DHT22;8328;52.206;21.006;2023-07-24T11:45:01;34.80;18.70
16437;DHT22;8328;52.206;21.006;2023-07-24T11:47:29;34.00;18.00
16437;DHT22;8328;52.206;21.006;2023-07-24T11:50:01;36.50;17.00
16437;DHT22;8328;52.206;21.006;2023-07-24T11:53:01;37.10;15.00
16437;DHT22;8328;52.206;21.006;2023-07-24T11:55:32;38.00;13.20
16437;DHT22;8328;52.206;21.006;2023-07-24T11:58:01;38.10;12.20
16437;DHT22;8328;52.206;21.006;2023-07-24T12:00:27;38.30;11.60
16437;DHT22;8328;52.206;21.006;2023-07-24T12:02:59;38.50;10.50
16437;DHT22;8328;52.206;21.006;2023-07-24T12:05:27;38.60;9.50
16437;DHT22;8328;52.206;21.006;2023-07-24T12:07:54;37.90;9.10
16437;DHT22;8328;52.206;21.006;2023-07-24T12:10:29;37.60;9.00
16437;DHT22;8328;52.206;21.006;2023-07-24T12:12:58;34.20;9.30
16437;DHT22;8328;52.206;21.006;2023-07-24T12:15:26;37.00;8.40
16437;DHT22;8328;52.206;21.006;2023-07-24T12:17:57;38.00;11.50
16437;DHT22;8328;52.206;21.006;2023-07-24T12:20:23;36.60;10.30
16437;DHT22;8328;52.206;21.006;2023-07-24T12:22:49;37.00;9.30
16437;DHT22;8328;52.206;21.006;2023-07-24T12:25:18;37.10;9.00
16437;DHT22;8328;52.206;21.006;2023-07-24T12:27:45;37.10;9.60
16437;DHT22;8328;52.206;21.006;2023-07-24T12:30:12;37.70;8.60
16437;DHT22;8328;52.206;21.006;2023-07-24T12:32:38;38.50;7.90
16437;DHT22;8328;52.206;21.006;2023-07-24T12:37:34;39.50;5.90
16437;DHT22;8328;52.206;21.006;2023-07-24T12:40:00;40.20;5.00
16437;DHT22;8328;52.206;21.006;2023-07-24T12:42:25;41.00;4.30
16437;DHT22;8328;52.206;21.006;2023-07-24T12:44:52;40.30;3.50
16437;DHT22;8328;52.206;21.006;2023-07-24T12:47:18;40.00;3.50
16437;DHT22;8328;52.206;21.006;2023-07-24T12:49:44;39.80;3.90
16437;DHT22;8328;52.206;21.006;2023-07-24T12:52:10;38.70;5.00
16437;DHT22;8328;52.206;21.006;2023-07-24T12:54:37;38.50;5.60
16437;DHT22;8328;52.206;21.006;2023-07-24T12:57:03;38.30;4.60
16437;DHT22;8328;52.206;21.006;2023-07-24T12:59:29;36.60;4.20
16437;DHT22;8328;52.206;21.006;2023-07-24T13:01:55;37.00;4.40
16437;DHT22;8328;52.206;21.006;2023-07-24T13:04:22;36.90;5.40
16437;DHT22;8328;52.206;21.006;2023-07-24T13:09:14;36.30;6.30
16437;DHT22;8328;52.206;21.006;2023-07-24T13:11:40;37.40;6.00
16437;DHT22;8328;52.206;21.006;2023-07-24T13:14:06;38.60;4.80
16437;DHT22;8328;52.206;21.006;2023-07-24T13:18:58;41.20;2.50
16437;DHT22;8328;52.206;21.006;2023-07-24T13:21:25;42.10;1.00
16437;DHT22;8328;52.206;21.006;2023-07-24T13:23:51;41.80;1.00
16437;DHT22;8328;52.206;21.006;2023-07-24T13:26:18;39.70;1.00
16437;DHT22;8328;52.206;21.006;2023-07-24T13:28:44;38.00;2.70
16437;DHT22;8328;52.206;21.006;2023-07-24T13:31:16;37.10;3.00
16437;DHT22;8328;52.206;21.006;2023-07-24T13:36:09;36.00;4.30
16437;DHT22;8328;52.206;21.006;2023-07-24T13:38:42;35.90;5.90
16437;DHT22;8328;52.206;21.006;2023-07-24T13:41:08;35.10;6.10
16437;DHT22;8328;52.206;21.006;2023-07-24T13:48:29;34.30;7.20
16437;DHT22;8328;52.206;21.006;2023-07-24T13:50:59;32.80;7.30
16437;DHT22;8328;52.206;21.006;2023-07-24T13:55:52;34.80;6.80
16437;DHT22;8328;52.206;21.006;2023-07-24T13:58:18;37.00;6.00
16437;DHT22;8328;52.206;21.006;2023-07-24T14:00:45;36.60;5.50
16437;DHT22;8328;52.206;21.006;2023-07-24T14:03:13;35.70;6.50
16437;DHT22;8328;52.206;21.006;2023-07-24T14:05:38;37.90;5.80
16437;DHT22;8328;52.206;21.006;2023-07-24T14:10:31;38.00;2.70
16437;DHT22;8328;52.206;21.006;2023-07-24T14:13:00;40.00;1.70
16437;DHT22;8328;52.206;21.006;2023-07-24T14:15:28;42.40;1.00
16437;DHT22;8328;52.206;21.006;2023-07-24T14:17:54;45.40;1.00
16437;DHT22;8328;52.206;21.006;2023-07-24T14:20:20;46.10;1.00
16437;DHT22;8328;52.206;21.006;2023-07-24T14:22:46;46.50;1.00
16437;DHT22;8328;52.206;21.006;2023-07-24T14:25:11;46.90;1.00
16437;DHT22;8328;52.206;21.006;2023-07-24T14:27:37;47.20;1.00
16437;DHT22;8328;52.206;21.006;2023-07-24T14:30:04;47.10;1.00
16437;DHT22;8328;52.206;21.006;2023-07-24T14:32:30;45.90;1.00
16437;DHT22;8328;52.206;21.006;2023-07-24T14:34:56;45.40;1.00
16437;DHT22;8328;52.206;21.006;2023-07-24T14:37:22;44.50;1.00
16437;DHT22;8328;52.206;21.006;2023-07-24T14:39:49;44.30;1.00
16437;DHT22;8328;52.206;21.006;2023-07-24T14:42:15;44.90;1.00
16437;DHT22;8328;52.206;21.006;2023-07-24T14:44:41;44.40;1.00
16437;DHT22;8328;52.206;21.006;2023-07-24T14:47:07;44.10;1.00
16437;DHT22;8328;52.206;21.006;2023-07-24T14:49:34;43.60;1.00
16437;DHT22;8328;52.206;21.006;2023-07-24T14:51:59;43.90;1.00
16437;DHT22;8328;52.206;21.006;2023-07-24T14:54:25;43.70;1.00
16437;DHT22;8328;52.206;21.006;2023-07-24T14:56:51;42.20;1.00
16437;DHT22;8328;52.206;21.006;2023-07-24T14:59:17;41.30;1.00
16437;DHT22;8328;52.206;21.006;2023-07-24T15:01:43;39.50;1.00
16437;DHT22;8328;52.206;21.006;2023-07-24T15:04:09;38.10;1.00
16437;DHT22;8328;52.206;21.006;2023-07-24T15:06:36;36.80;1.00
16437;DHT22;8328;52.206;21.006;2023-07-24T15:09:02;36.30;1.00
16437;DHT22;8328;52.206;21.006;2023-07-24T15:11:28;35.90;1.00
16437;DHT22;8328;52.206;21.006;2023-07-24T15:13:53;35.60;1.00
16437;DHT22;8328;52.206;21.006;2023-07-24T15:18:48;34.60;1.00
16437;DHT22;8328;52.206;21.006;2023-07-24T15:21:14;34.60;1.00
16437;DHT22;8328;52.206;21.006;2023-07-24T15:23:40;35.10;1.00
16437;DHT22;8328;52.206;21.006;2023-07-24T15:26:07;35.10;1.00
16437;DHT22;8328;52.206;21.006;2023-07-24T15:28:33;35.00;1.00
16437;DHT22;8328;52.206;21.006;2023-07-24T15:30:59;34.90;1.00
16437;DHT22;8328;52.206;21.006;2023-07-24T15:33:28;35.10;1.00
16437;DHT22;8328;52.206;21.006;2023-07-24T15:35:54;34.70;1.00
16437;DHT22;8328;52.206;21.006;2023-07-24T15:38:21;34.10;1.00
16437;DHT22;8328;52.206;21.006;2023-07-24T15:43:14;33.40;1.00
16437;DHT22;8328;52.206;21.006;2023-07-24T15:45:42;33.20;1.70
16437;DHT22;8328;52.206;21.006;2023-07-24T15:48:08;33.00;1.90
16437;DHT22;8328;52.206;21.006;2023-07-24T15:50:35;32.80;2.40
16437;DHT22;8328;52.206;21.006;2023-07-24T15:53:01;32.70;2.30
16437;DHT22;8328;52.206;21.006;2023-07-24T15:55:28;32.60;2.40
16437;DHT22;8328;52.206;21.006;2023-07-24T15:57:53;32.30;2.90
16437;DHT22;8328;52.206;21.006;2023-07-24T16:00:20;32.20;2.80
16437;DHT22;8328;52.206;21.006;2023-07-24T16:02:46;32.10;3.00
16437;DHT22;8328;52.206;21.006;2023-07-24T16:05:20;32.00;3.40
16437;DHT22;8328;52.206;21.006;2023-07-24T16:07:47;31.80;3.40
16437;DHT22;8328;52.206;21.006;2023-07-24T16:10:14;31.80;3.60
16437;DHT22;8328;52.206;21.006;2023-07-24T16:12:41;31.60;3.90
16437;DHT22;8328;52.206;21.006;2023-07-24T16:15:08;31.50;3.90
16437;DHT22;8328;52.206;21.006;2023-07-24T16:20:01;31.10;4.30
16437;DHT22;8328;52.206;21.006;2023-07-24T16:27:22;30.80;4.60
16437;DHT22;8328;52.206;21.006;2023-07-24T16:32:14;30.80;4.80
16437;DHT22;8328;52.206;21.006;2023-07-24T16:34:42;30.90;5.10
16437;DHT22;8328;52.206;21.006;2023-07-24T16:37:08;30.80;5.60
16437;DHT22;8328;52.206;21.006;2023-07-24T16:39:34;30.80;5.30
16437;DHT22;8328;52.206;21.006;2023-07-24T16:42:00;30.70;5.20
16437;DHT22;8328;52.206;21.006;2023-07-24T16:44:27;30.80;5.30
16437;DHT22;8328;52.206;21.006;2023-07-24T16:46:54;30.80;5.90
16437;DHT22;8328;52.206;21.006;2023-07-24T16:49:20;30.90;5.70
16437;DHT22;8328;52.206;21.006;2023-07-24T16:51:47;30.90;6.70
16437;DHT22;8328;52.206;21.006;2023-07-24T16:56:41;30.70;5.40
16437;DHT22;8328;52.206;21.006;2023-07-24T16:59:08;30.50;6.80
16437;DHT22;8328;52.206;21.006;2023-07-24T17:01:34;30.00;8.20
16437;DHT22;8328;52.206;21.006;2023-07-24T17:04:00;29.80;8.90
16437;DHT22;8328;52.206;21.006;2023-07-24T17:06:26;29.50;9.50
16437;DHT22;8328;52.206;21.006;2023-07-24T17:08:51;29.30;10.20
16437;DHT22;8328;52.206;21.006;2023-07-24T17:11:18;29.20;10.40
16437;DHT22;8328;52.206;21.006;2023-07-24T17:16:12;29.20;9.00
16437;DHT22;8328;52.206;21.006;2023-07-24T17:18:38;29.20;9.80
16437;DHT22;8328;52.206;21.006;2023-07-24T17:21:04;29.10;10.60
16437;DHT22;8328;52.206;21.006;2023-07-24T17:23:31;29.10;9.60
16437;DHT22;8328;52.206;21.006;2023-07-24T17:25:56;29.10;8.90